Time;durP1;ratioP1;P1;durP2;ratioP2;P2;SDS_P1;SDS_P2;PMS_P1;PMS_P2;Temp;Humidity;BMP_temperature;BMP_pressure;BME280_temperature;BME280_humidity;BME280_pressure;Samples;Min_cycle;Max_cycle;Signal;HPM_P1;HPM_P2
2023/09/05 00:01:13;;;;;;;0.50;0.50;;;;;;;12.49;94.10;100045.63;6274887;22;20062;-91
2023/09/05 00:03:40;;;;;;;0.40;0.40;;;;;;;12.46;93.68;100036.06;6197356;22;20106;-90
2023/09/05 00:06:10;;;;;;;0.45;0.45;;;;;;;12.50;93.58;100039.13;6275196;22;20045;-90
2023/09/05 00:08:38;;;;;;;0.40;0.40;;;;;;;12.48;93.63;100041.25;6198189;22;20114;-90
2023/09/05 00:11:05;;;;;;;0.50;0.50;;;;;;;12.44;93.77;100038.19;6274274;22;20023;-90
2023/09/05 00:13:32;;;;;;;0.45;0.45;;;;;;;12.45;93.52;100034.41;6247262;22;20455;-90
2023/09/05 00:15:59;;;;;;;0.50;0.50;;;;;;;12.43;93.27;100028.41;6274588;22;20505;-91
2023/09/05 00:18:27;;;;;;;0.45;0.45;;;;;;;12.44;93.34;100027.34;6275081;22;20073;-89
2023/09/05 00:20:55;;;;;;;0.45;0.45;;;;;;;12.46;93.09;100033.38;6247641;22;20015;-91
2023/09/05 00:23:24;;;;;;;0.40;0.40;;;;;;;12.45;93.20;100045.22;6275904;22;20109;-92
2023/09/05 00:25:51;;;;;;;0.45;0.45;;;;;;;12.43;93.13;100032.97;6274503;22;20020;-92
2023/09/05 00:28:19;;;;;;;0.40;0.40;;;;;;;12.42;93.14;100034.06;6247217;22;20024;-88
2023/09/05 00:30:46;;;;;;;0.40;0.40;;;;;;;12.34;93.46;100036.03;6273693;22;20023;-89
2023/09/05 00:33:14;;;;;;;0.50;0.50;;;;;;;12.31;93.82;100039.19;6246418;22;20518;-89
2023/09/05 00:35:43;;;;;;;0.45;0.45;;;;;;;12.26;94.04;100041.78;6273724;22;20059;-89
2023/09/05 00:38:10;;;;;;;0.50;0.50;;;;;;;12.22;94.36;100051.41;6273747;22;20339;-89
2023/09/05 00:40:37;;;;;;;0.50;0.50;;;;;;;12.19;94.69;100051.03;6274598;22;20023;-91
2023/09/05 00:43:07;;;;;;;0.50;0.50;;;;;;;12.18;94.82;100054.78;6246727;22;20026;-89
2023/09/05 00:45:34;;;;;;;0.50;0.50;;;;;;;12.14;94.89;100054.44;6273822;22;20024;-90
2023/09/05 00:48:07;;;;;;;0.50;0.50;;;;;;;12.10;95.20;100058.63;6221333;22;20520;-89
2023/09/05 00:50:34;;;;;;;0.50;0.50;;;;;;;12.10;95.55;100054.06;6247575;22;20362;-88
2023/09/05 00:53:02;;;;;;;0.50;0.50;;;;;;;12.08;95.75;100048.06;6273571;22;20024;-89
2023/09/05 00:55:29;;;;;;;0.40;0.40;;;;;;;12.10;95.73;100042.41;6247044;22;20031;-89
2023/09/05 00:58:00;;;;;;;0.50;0.50;;;;;;;12.09;95.77;100047.00;6224089;22;20024;-90
2023/09/05 01:00:30;;;;;;;0.50;0.50;;;;;;;12.11;95.72;100041.38;6275942;22;20024;-90
2023/09/05 01:02:57;;;;;;;0.40;0.40;;;;;;;12.07;95.83;100046.41;6274360;22;20102;-89
2023/09/05 01:05:27;;;;;;;0.40;0.40;;;;;;;12.02;95.95;100035.44;6247120;22;20023;-89
2023/09/05 01:08:04;;;;;;;0.50;0.50;;;;;;;11.99;96.37;100049.44;6273806;22;20027;-88
2023/09/05 01:10:42;;;;;;;0.50;0.50;;;;;;;11.98;96.34;100046.97;6247647;22;20065;-89
2023/09/05 01:13:10;;;;;;;0.50;0.50;;;;;;;12.00;96.37;100051.09;6247851;22;20042;-90
2023/09/05 01:15:37;;;;;;;0.40;0.40;;;;;;;11.91;96.37;100038.94;6275764;22;20019;-90
2023/09/05 01:18:04;;;;;;;0.45;0.45;;;;;;;11.87;96.67;100054.78;6276260;22;20016;-90
2023/09/05 01:20:42;;;;;;;0.40;0.40;;;;;;;11.73;96.90;100049.75;6276960;22;20030;-90
2023/09/05 01:23:17;;;;;;;0.40;0.40;;;;;;;11.58;97.78;100037.41;6224412;22;20019;-92
2023/09/05 01:25:45;;;;;;;0.40;0.40;;;;;;;11.65;97.89;100049.00;6276228;22;20023;-91
2023/09/05 01:28:13;;;;;;;0.50;0.50;;;;;;;11.68;98.01;100050.41;6248260;22;20028;-89
2023/09/05 01:30:40;;;;;;;0.50;0.50;;;;;;;11.68;98.21;100053.94;6249261;22;20397;-90
2023/09/05 01:33:08;;;;;;;0.50;0.50;;;;;;;11.70;97.92;100051.03;6229161;22;20043;-89
2023/09/05 01:35:35;;;;;;;0.50;0.50;;;;;;;11.68;98.34;100051.25;6279310;22;20019;-88
2023/09/05 01:38:03;;;;;;;0.50;0.50;;;;;;;11.67;98.44;100057.72;6263775;22;20085;-88
2023/09/05 01:40:30;;;;;;;0.50;0.50;;;;;;;11.71;98.56;100052.66;6277626;22;20027;-90
2023/09/05 01:42:58;;;;;;;0.50;0.50;;;;;;;11.69;98.68;100055.56;6253429;22;20054;-90
2023/09/05 01:45:25;;;;;;;0.50;0.50;;;;;;;11.66;98.87;100052.50;6287514;22;20004;-90
2023/09/05 01:47:52;;;;;;;0.50;0.50;;;;;;;11.65;98.96;100045.47;6276066;22;20019;-88
2023/09/05 01:50:22;;;;;;;0.50;0.50;;;;;;;11.54;98.89;100047.03;6266802;22;20024;-90
2023/09/05 01:52:49;;;;;;;0.50;0.50;;;;;;;11.40;99.03;100053.66;6223206;22;20020;-85
2023/09/05 01:55:16;;;;;;;0.50;0.50;;;;;;;11.33;99.43;100053.69;6275518;22;20102;-88
2023/09/05 01:57:44;;;;;;;0.50;0.50;;;;;;;11.25;99.53;100052.13;6277572;22;20026;-88
2023/09/05 02:00:12;;;;;;;0.50;0.50;;;;;;;11.08;99.40;100037.53;6249189;22;20032;-89
2023/09/05 02:02:40;;;;;;;0.50;0.50;;;;;;;10.97;99.75;100041.78;6247605;22;20402;-88
2023/09/05 02:05:08;;;;;;;0.50;0.50;;;;;;;10.90;100.00;100051.00;6249529;22;20046;-89
2023/09/05 02:07:35;;;;;;;0.50;0.50;;;;;;;10.75;100.00;100038.66;6248628;22;20030;-89
2023/09/05 02:10:02;;;;;;;0.50;0.50;;;;;;;10.70;100.00;100046.59;6248862;22;20485;-88
2023/09/05 02:12:35;;;;;;;0.47;0.47;;;;;;;10.66;100.00;100047.25;6275987;22;20043;-89
2023/09/05 02:15:03;;;;;;;0.40;0.40;;;;;;;10.63;100.00;100054.75;6264518;22;20026;-88
2023/09/05 02:17:33;;;;;;;0.45;0.45;;;;;;;10.61;100.00;100053.31;6276655;22;20545;-88
2023/09/05 02:20:03;;;;;;;0.50;0.50;;;;;;;10.50;100.00;100045.91;6276367;22;20024;-89
2023/09/05 02:22:30;;;;;;;0.50;0.50;;;;;;;10.44;100.00;100055.72;6249648;22;20020;-88
2023/09/05 02:24:59;;;;;;;0.50;0.50;;;;;;;10.36;100.00;100048.72;6270846;22;20028;-88
2023/09/05 02:27:27;;;;;;;0.50;0.50;;;;;;;10.37;100.00;100058.44;6290759;22;20099;-88
2023/09/05 02:30:01;;;;;;;0.50;0.50;;;;;;;10.40;100.00;100066.09;6223019;22;20024;-88
2023/09/05 02:32:31;;;;;;;0.50;0.50;;;;;;;10.39;100.00;100053.66;6222710;22;20020;-88
2023/09/05 02:34:58;;;;;;;0.50;0.50;;;;;;;10.36;100.00;100047.88;6247344;22;20447;-87
2023/09/05 02:37:26;;;;;;;0.50;0.50;;;;;;;10.33;100.00;100059.94;6274933;22;20077;-87
2023/09/05 02:39:53;;;;;;;0.50;0.50;;;;;;;10.26;100.00;100064.50;6247424;22;20523;-87
2023/09/05 02:42:22;;;;;;;0.50;0.50;;;;;;;10.22;100.00;100057.06;6222616;22;20023;-88
2023/09/05 02:44:51;;;;;;;0.50;0.50;;;;;;;10.28;100.00;100065.16;6248035;22;20027;-88
2023/09/05 02:47:18;;;;;;;0.50;0.50;;;;;;;10.29;100.00;100068.69;6247428;22;20020;-87
2023/09/05 02:49:47;;;;;;;0.50;0.50;;;;;;;10.29;100.00;100074.06;6274278;22;20365;-87
2023/09/05 02:52:15;;;;;;;0.50;0.50;;;;;;;10.30;100.00;100073.84;6274183;22;20447;-88
2023/09/05 02:54:42;;;;;;;0.50;0.50;;;;;;;10.33;100.00;100070.75;6247645;22;20475;-87
2023/09/05 02:57:10;;;;;;;0.55;0.55;;;;;;;10.29;100.00;100068.69;6246672;22;20024;-87
2023/09/05 02:59:37;;;;;;;0.50;0.50;;;;;;;10.34;100.00;100068.84;6276471;22;20019;-89
2023/09/05 03:02:05;;;;;;;0.57;0.57;;;;;;;10.37;100.00;100081.91;6252500;22;20020;-88
2023/09/05 03:04:32;;;;;;;0.50;0.50;;;;;;;10.35;100.00;100067.81;6278296;22;20027;-88
2023/09/05 03:10:19;;;;;;;0.50;0.50;;;;;;;10.34;100.00;100071.56;6124636;23;20029;-88
2023/09/05 03:12:47;;;;;;;0.50;0.50;;;;;;;10.29;100.00;100066.81;6098207;23;20037;-87
2023/09/05 03:15:18;;;;;;;0.50;0.50;;;;;;;10.35;100.00;100070.50;6098354;23;20081;-88
2023/09/05 03:17:45;;;;;;;0.50;0.50;;;;;;;10.37;100.00;100071.94;6074486;23;20052;-88
2023/09/05 03:20:15;;;;;;;0.50;0.50;;;;;;;10.55;100.00;100073.91;6123926;23;20802;-87
2023/09/05 03:22:42;;;;;;;0.57;0.57;;;;;;;10.59;100.00;100074.31;6098437;23;20030;-88
2023/09/05 03:25:10;;;;;;;0.50;0.50;;;;;;;10.63;100.00;100087.16;6074635;23;20033;-89
2023/09/05 03:27:37;;;;;;;0.50;0.50;;;;;;;10.66;100.00;100080.47;6101124;23;20505;-89
2023/09/05 03:30:07;;;;;;;0.60;0.60;;;;;;;10.58;100.00;100078.88;6122510;23;20446;-87
2023/09/05 03:32:34;;;;;;;0.50;0.50;;;;;;;10.63;100.00;100079.06;6124494;23;20030;-87
2023/09/05 03:35:01;;;;;;;0.50;0.50;;;;;;;10.69;100.00;100082.75;6097763;23;20021;-88
2023/09/05 03:37:29;;;;;;;0.50;0.50;;;;;;;10.74;100.00;100082.91;6098246;23;20018;-88
2023/09/05 03:39:58;;;;;;;0.50;0.50;;;;;;;10.78;100.00;100077.88;6121814;23;20125;-88
2023/09/05 03:42:25;;;;;;;0.60;0.60;;;;;;;10.76;100.00;100072.72;6122754;23;20041;-87
2023/09/05 03:44:52;;;;;;;0.50;0.50;;;;;;;10.87;100.00;100075.75;6124550;23;20025;-88
2023/09/05 03:47:19;;;;;;;0.50;0.50;;;;;;;10.97;100.00;100076.91;6121091;23;20026;-88
2023/09/05 03:49:47;;;;;;;0.50;0.50;;;;;;;11.04;100.00;100076.84;6124049;23;20112;-87
2023/09/05 03:52:14;;;;;;;0.50;0.50;;;;;;;11.07;100.00;100073.72;6074883;23;20117;-88
2023/09/05 03:54:41;;;;;;;0.50;0.50;;;;;;;11.13;100.00;100075.50;6124498;23;20057;-90
2023/09/05 03:57:08;;;;;;;0.50;0.50;;;;;;;11.21;100.00;100077.09;6096650;23;20080;-85
2023/09/05 03:59:38;;;;;;;0.50;0.50;;;;;;;11.31;100.00;100076.59;6122202;23;20021;-87
2023/09/05 04:02:05;;;;;;;0.50;0.50;;;;;;;11.41;100.00;100077.72;6123278;23;20032;-87
2023/09/05 04:04:32;;;;;;;0.50;0.50;;;;;;;11.53;100.00;100085.94;6128266;23;20100;-88
2023/09/05 04:07:00;;;;;;;0.50;0.50;;;;;;;11.59;99.77;100079.63;6151416;23;20052;-87
2023/09/05 04:09:27;;;;;;;0.60;0.60;;;;;;;11.74;99.48;100075.72;6198212;23;20116;-87
2023/09/05 04:11:54;;;;;;;0.57;0.57;;;;;;;11.88;99.08;100077.25;6186105;23;20063;-88
2023/09/05 04:14:24;;;;;;;0.50;0.50;;;;;;;11.93;98.68;100074.69;6188078;23;20478;-87
2023/09/05 04:16:51;;;;;;;0.50;0.50;;;;;;;12.10;98.17;100080.28;6186521;23;20107;-87
2023/09/05 04:19:18;;;;;;;0.50;0.50;;;;;;;12.21;97.59;100078.72;6161231;23;20079;-86
2023/09/05 04:21:45;;;;;;;0.50;0.50;;;;;;;12.34;97.14;100076.63;6161799;23;20020;-86
2023/09/05 04:24:12;;;;;;;0.60;0.60;;;;;;;12.43;96.71;100076.31;6186423;23;20020;-88
2023/09/05 04:26:39;;;;;;;0.50;0.50;;;;;;;12.52;96.16;100078.44;6161778;23;20025;-87
2023/09/05 04:29:07;;;;;;;0.50;0.50;;;;;;;12.74;95.69;100086.06;6137781;23;20275;-88
2023/09/05 04:31:35;;;;;;;0.50;0.50;;;;;;;13.02;93.94;100075.38;6186434;23;20028;-87
2023/09/05 04:34:02;;;;;;;0.50;0.50;;;;;;;13.17;92.88;100072.19;6213512;23;20031;-86
2023/09/05 04:36:29;;;;;;;0.50;0.50;;;;;;;13.33;92.03;100081.53;6186603;23;20091;-85
2023/09/05 04:38:56;;;;;;;0.50;0.50;;;;;;;13.47;91.52;100073.16;6212659;23;20024;-84
2023/09/05 04:41:24;;;;;;;0.50;0.50;;;;;;;13.57;90.95;100078.78;6212545;23;20020;-85
2023/09/05 04:43:51;;;;;;;0.50;0.50;;;;;;;13.68;90.30;100072.53;6161093;23;20024;-86
2023/09/05 04:46:18;;;;;;;0.50;0.50;;;;;;;13.77;89.51;100068.38;6211609;23;20029;-85
2023/09/05 04:48:46;;;;;;;0.50;0.50;;;;;;;13.84;88.80;100068.25;6212206;23;20464;-84
2023/09/05 04:51:13;;;;;;;0.50;0.50;;;;;;;14.03;88.40;100077.06;6213008;23;20083;-85
2023/09/05 04:53:41;;;;;;;0.50;0.50;;;;;;;14.22;87.57;100088.53;6187601;23;20079;-85
2023/09/05 04:56:08;;;;;;;0.50;0.50;;;;;;;14.35;86.66;100093.69;6209915;23;20107;-86
2023/09/05 04:58:39;;;;;;;0.50;0.50;;;;;;;14.41;85.71;100073.72;6186846;23;20024;-85
2023/09/05 05:01:09;;;;;;;0.50;0.50;;;;;;;14.57;85.48;100083.00;6211823;23;20425;-85
2023/09/05 05:03:39;;;;;;;0.50;0.50;;;;;;;14.71;85.20;100088.91;6213044;23;20051;-85
2023/09/05 05:06:09;;;;;;;0.40;0.40;;;;;;;14.76;84.48;100086.28;6212856;23;20032;-85
2023/09/05 05:08:37;;;;;;;0.50;0.50;;;;;;;14.93;83.62;100097.19;6213311;23;20449;-85
2023/09/05 05:11:05;;;;;;;0.50;0.50;;;;;;;14.97;82.99;100083.94;6213284;23;20127;-85
2023/09/05 05:13:33;;;;;;;0.47;0.47;;;;;;;15.07;82.83;100092.25;6218564;23;20051;-85
2023/09/05 05:16:00;;;;;;;0.50;0.50;;;;;;;15.25;82.44;100088.47;6172530;23;20028;-85
2023/09/05 05:18:28;;;;;;;0.50;0.50;;;;;;;15.35;82.15;100088.59;6229072;23;20021;-84
2023/09/05 05:21:09;;;;;;;0.40;0.40;;;;;;;15.51;82.12;100092.38;6206788;23;20008;-84
2023/09/05 05:23:36;;;;;;;0.40;0.40;;;;;;;15.58;81.37;100082.13;6195606;23;20031;-86
2023/09/05 05:26:03;;;;;;;0.50;0.50;;;;;;;15.73;79.90;100089.72;6216355;23;20020;-85
2023/09/05 05:28:30;;;;;;;0.40;0.40;;;;;;;15.90;79.18;100085.03;6214225;23;20024;-85
2023/09/05 05:30:57;;;;;;;0.50;0.50;;;;;;;15.97;77.93;100093.00;6187412;23;20024;-85
2023/09/05 05:33:28;;;;;;;0.40;0.40;;;;;;;15.98;76.42;100090.03;6187674;23;20079;-85
2023/09/05 05:35:58;;;;;;;0.50;0.50;;;;;;;16.03;76.13;100095.53;6186771;23;20502;-85
2023/09/05 05:38:25;;;;;;;0.40;0.40;;;;;;;16.10;76.43;100091.78;6187454;23;20025;-85
2023/09/05 05:40:53;;;;;;;0.40;0.40;;;;;;;16.16;76.49;100075.25;6213513;23;20031;-84
2023/09/05 05:43:23;;;;;;;0.50;0.50;;;;;;;16.35;76.25;100089.34;6187070;23;20020;-85
2023/09/05 05:45:53;;;;;;;0.50;0.50;;;;;;;16.43;75.88;100088.91;6213786;23;20108;-85
2023/09/05 05:48:21;;;;;;;0.50;0.50;;;;;;;16.49;75.22;100087.03;6188047;23;20103;-84
2023/09/05 05:50:48;;;;;;;0.40;0.40;;;;;;;16.52;73.93;100081.06;6188498;23;20118;-85
2023/09/05 05:53:16;;;;;;;0.40;0.40;;;;;;;16.59;73.58;100089.88;6233734;23;20055;-85
2023/09/05 05:55:43;;;;;;;0.40;0.40;;;;;;;16.69;73.60;100087.25;6225119;23;20030;-85
2023/09/05 05:58:10;;;;;;;0.40;0.40;;;;;;;16.86;73.10;100091.75;6187209;23;20067;-85
2023/09/05 06:00:51;;;;;;;0.40;0.40;;;;;;;16.88;70.88;100071.34;6115731;23;20099;-84
2023/09/05 06:04:19;;;;;;;0.40;0.40;;;;;;;16.98;70.95;100086.16;6150496;23;20064;-85
2023/09/05 06:06:49;;;;;;;0.40;0.40;;;;;;;17.00;69.90;100073.09;6068558;23;20032;-85
2023/09/05 06:09:55;;;;;;;0.40;0.40;;;;;;;17.19;70.40;100074.31;5997525;23;20162;-84
2023/09/05 06:12:23;;;;;;;0.40;0.40;;;;;;;17.33;69.64;100075.50;6039424;23;20424;-84
2023/09/05 06:14:50;;;;;;;0.40;0.40;;;;;;;17.27;68.63;100054.72;6063583;23;20030;-85
2023/09/05 06:17:21;;;;;;;0.40;0.40;;;;;;;17.51;68.45;100076.16;6063037;23;20229;-85
2023/09/05 06:19:50;;;;;;;0.40;0.40;;;;;;;17.56;67.24;100076.19;6063553;23;20023;-85
2023/09/05 06:22:20;;;;;;;0.40;0.40;;;;;;;17.49;67.21;100061.94;6039070;23;20125;-85
2023/09/05 06:24:50;;;;;;;0.40;0.40;;;;;;;17.61;65.81;100078.13;6040334;23;20109;-85
2023/09/05 06:27:17;;;;;;;0.40;0.40;;;;;;;17.58;65.31;100087.66;6039138;23;20022;-85
2023/09/05 06:29:46;;;;;;;0.40;0.40;;;;;;;17.66;66.28;100086.34;6039506;23;20027;-85
2023/09/05 06:32:13;;;;;;;0.40;0.40;;;;;;;17.67;63.79;100074.31;6063113;23;20494;-84
2023/09/05 06:34:40;;;;;;;0.40;0.40;;;;;;;17.71;64.06;100084.44;6089557;23;20097;-85
2023/09/05 06:37:08;;;;;;;0.40;0.40;;;;;;;17.81;63.56;100075.50;6127098;23;20041;-84
2023/09/05 06:39:35;;;;;;;0.40;0.40;;;;;;;17.91;62.77;100075.56;6153444;23;20461;-85
2023/09/05 06:42:04;;;;;;;0.40;0.40;;;;;;;18.04;62.86;100076.97;6183197;23;20025;-85
2023/09/05 06:44:36;;;;;;;0.40;0.40;;;;;;;18.16;62.61;100072.09;6183455;23;20032;-85
2023/09/05 06:47:03;;;;;;;0.40;0.40;;;;;;;18.34;61.55;100078.16;6183581;23;20071;-84
2023/09/05 06:49:30;;;;;;;0.40;0.40;;;;;;;18.38;61.18;100079.25;6181675;23;20457;-85
2023/09/05 06:51:58;;;;;;;0.40;0.40;;;;;;;18.39;60.65;100069.97;6181591;23;20487;-85
2023/09/05 06:54:25;;;;;;;0.40;0.40;;;;;;;18.41;60.56;100073.25;6181623;23;20178;-84
2023/09/05 06:56:52;;;;;;;0.30;0.30;;;;;;;18.52;60.11;100063.97;6183291;23;20016;-84
2023/09/05 06:59:19;;;;;;;0.40;0.40;;;;;;;18.64;59.97;100071.91;6183012;23;20047;-86
2023/09/05 07:01:46;;;;;;;0.40;0.40;;;;;;;18.69;58.55;100063.72;6183423;23;20025;-85
2023/09/05 07:04:14;;;;;;;0.40;0.40;;;;;;;18.60;57.86;100059.88;6181580;23;20053;-85
2023/09/05 07:06:41;;;;;;;0.40;0.40;;;;;;;18.50;57.08;100066.16;6183414;23;20024;-84
2023/09/05 07:09:13;;;;;;;0.40;0.40;;;;;;;18.36;57.41;100065.03;6202844;23;20081;-85
2023/09/05 07:11:41;;;;;;;0.40;0.40;;;;;;;18.43;57.55;100060.13;6213191;23;20021;-84
2023/09/05 07:14:09;;;;;;;0.40;0.40;;;;;;;18.77;58.01;100065.13;6186322;23;20024;-85
2023/09/05 07:16:37;;;;;;;0.40;0.40;;;;;;;19.01;56.91;100070.84;6162737;23;20595;-86
2023/09/05 07:19:07;;;;;;;0.40;0.40;;;;;;;19.06;57.25;100057.16;6213412;23;20464;-85
2023/09/05 07:21:36;;;;;;;0.40;0.40;;;;;;;19.31;56.21;100061.78;6213646;23;20361;-84
2023/09/05 07:24:03;;;;;;;0.40;0.40;;;;;;;19.20;55.52;100050.03;6161880;23;20347;-84
2023/09/05 07:26:38;;;;;;;0.50;0.50;;;;;;;19.10;55.26;100046.50;6138334;23;20044;-84
2023/09/05 07:29:05;;;;;;;0.40;0.40;;;;;;;19.21;56.30;100057.16;6137908;23;20028;-83
2023/09/05 07:31:32;;;;;;;0.40;0.40;;;;;;;19.36;55.81;100052.75;6186783;23;20020;-84
2023/09/05 07:34:00;;;;;;;0.40;0.40;;;;;;;19.59;54.96;100046.66;6211428;23;20024;-84
2023/09/05 07:36:28;;;;;;;0.40;0.40;;;;;;;19.75;53.63;100063.91;6186278;23;20024;-84
2023/09/05 07:38:55;;;;;;;0.40;0.40;;;;;;;19.77;53.80;100058.94;6212993;23;20103;-84
2023/09/05 07:41:22;;;;;;;0.40;0.40;;;;;;;19.80;53.60;100049.34;6213095;23;20021;-85
2023/09/05 07:43:51;;;;;;;0.40;0.40;;;;;;;19.82;52.36;100045.22;6187046;23;20020;-86
2023/09/05 07:46:18;;;;;;;0.50;0.50;;;;;;;19.77;52.08;100048.00;6213391;23;20055;-85
2023/09/05 07:48:46;;;;;;;0.47;0.47;;;;;;;19.88;51.70;100049.59;6138159;23;20423;-85
2023/09/05 07:51:13;;;;;;;0.40;0.40;;;;;;;20.08;50.66;100047.88;6212989;23;20028;-84
2023/09/05 07:53:48;;;;;;;0.45;0.45;;;;;;;20.01;51.08;100023.50;6213032;23;20425;-85
2023/09/05 07:56:16;;;;;;;0.50;0.50;;;;;;;20.33;51.26;100039.50;6185672;23;20025;-84
2023/09/05 07:58:43;;;;;;;0.40;0.40;;;;;;;20.72;51.07;100027.72;6186422;23;20025;-85
2023/09/05 08:01:11;;;;;;;0.50;0.50;;;;;;;20.98;49.28;100031.03;6210994;23;20096;-85
2023/09/05 08:03:38;;;;;;;0.50;0.50;;;;;;;20.98;49.40;100013.75;6212298;23;20056;-85
2023/09/05 08:06:06;;;;;;;0.50;0.50;;;;;;;21.13;49.62;100016.34;6185796;23;20091;-84
2023/09/05 08:08:35;;;;;;;0.50;0.50;;;;;;;21.30;48.55;100006.88;6180908;23;20029;-85
2023/09/05 08:11:03;;;;;;;0.50;0.50;;;;;;;21.49;48.05;100004.19;6182656;23;20107;-84
2023/09/05 08:13:30;;;;;;;0.50;0.50;;;;;;;21.89;47.26;100008.34;6155920;23;20032;-84
2023/09/05 08:15:57;;;;;;;0.50;0.50;;;;;;;22.48;45.64;100004.25;6157588;23;20025;-84
2023/09/05 08:18:28;;;;;;;0.40;0.40;;;;;;;22.88;43.92;99993.63;6157943;23;20056;-85
2023/09/05 08:20:57;;;;;;;0.40;0.40;;;;;;;23.35;43.59;100001.91;6182278;23;20078;-85
2023/09/05 08:23:28;;;;;;;0.30;0.30;;;;;;;22.11;45.14;99987.75;6183063;23;20024;-84
2023/09/05 08:26:00;;;;;;;0.50;0.50;;;;;;;21.27;47.24;100011.00;6184317;23;20104;-85
2023/09/05 08:28:32;;;;;;;0.50;0.50;;;;;;;22.23;45.24;100002.69;6182571;23;20025;-84
2023/09/05 08:31:02;;;;;;;0.50;0.50;;;;;;;23.03;41.62;100000.84;6183024;23;20044;-84
2023/09/05 08:33:47;;;;;;;0.50;0.50;;;;;;;23.18;38.45;99990.69;6202494;23;20098;-83
2023/09/05 08:36:14;;;;;;;0.50;0.50;;;;;;;23.18;39.27;100004.44;6181987;23;20021;-84
2023/09/05 08:38:41;;;;;;;0.50;0.50;;;;;;;23.28;38.91;99991.28;6182140;23;20364;-84
2023/09/05 08:41:10;;;;;;;0.50;0.50;;;;;;;23.31;39.07;100001.69;6183220;23;20025;-84
2023/09/05 08:43:38;;;;;;;0.50;0.50;;;;;;;23.51;38.90;99999.66;6184444;23;20029;-85
2023/09/05 08:46:08;;;;;;;0.50;0.50;;;;;;;24.10;38.34;99992.34;6197303;23;20041;-84
2023/09/05 08:48:38;;;;;;;0.50;0.50;;;;;;;24.37;38.23;100004.41;6170553;23;20536;-85
2023/09/05 08:51:21;;;;;;;0.50;0.50;;;;;;;24.79;36.60;100003.13;6196423;23;20040;-85
2023/09/05 08:53:58;;;;;;;0.50;0.50;;;;;;;25.18;35.94;100009.06;6186680;23;20025;-84
2023/09/05 08:56:26;;;;;;;0.50;0.50;;;;;;;25.28;35.30;99990.25;6157444;23;20639;-85
2023/09/05 08:58:59;;;;;;;0.50;0.50;;;;;;;25.71;35.61;99995.09;6182752;23;20361;-83
2023/09/05 09:01:26;;;;;;;0.30;0.30;;;;;;;25.82;35.08;99970.72;6205073;23;20079;-84
2023/09/05 09:03:54;;;;;;;0.20;0.20;;;;;;;24.49;38.14;99990.09;6180777;23;20483;-83
2023/09/05 09:09:36;;;;;;;0.30;0.30;;;;;;;21.87;43.15;99985.84;6236796;22;20028;-85
2023/09/05 09:12:04;;;;;;;0.50;0.50;;;;;;;22.23;43.06;99985.34;6241074;23;20059;-85
2023/09/05 09:14:31;;;;;;;0.50;0.50;;;;;;;23.59;39.85;99969.44;6243497;23;20375;-83
2023/09/05 09:17:05;;;;;;;0.50;0.50;;;;;;;24.84;37.88;99985.63;6242383;23;20046;-84
2023/09/05 09:19:33;;;;;;;0.50;0.50;;;;;;;25.69;36.38;99977.22;6243596;23;20024;-84
2023/09/05 09:22:02;;;;;;;0.50;0.50;;;;;;;26.31;35.09;99990.00;6242746;23;20427;-84
2023/09/05 09:24:39;;;;;;;0.50;0.50;;;;;;;26.51;34.35;99985.72;6252791;23;20047;-85
2023/09/05 09:27:07;;;;;;;0.50;0.50;;;;;;;26.14;34.24;99972.25;6276486;22;20486;-84
2023/09/05 09:29:39;;;;;;;0.50;0.50;;;;;;;25.88;33.64;99969.47;6247204;22;20090;-85
2023/09/05 09:32:07;;;;;;;0.50;0.50;;;;;;;25.96;34.30;99976.16;6246112;22;20020;-84
2023/09/05 09:34:40;;;;;;;0.50;0.50;;;;;;;26.01;33.33;99972.41;6273869;22;20020;-84
2023/09/05 09:37:24;;;;;;;0.50;0.50;;;;;;;26.65;33.12;99980.88;6273945;22;20034;-85
2023/09/05 09:39:59;;;;;;;0.50;0.50;;;;;;;27.29;31.24;99976.47;6248944;22;20020;-83
2023/09/05 09:42:26;;;;;;;;;;;;;;;27.28;31.27;99977.63;6248968;22;20019;-86
2023/09/05 09:44:54;;;;;;;0.50;0.50;;;;;;;27.62;30.21;99977.41;6224108;22;19923;-84
2023/09/05 09:47:24;;;;;;;0.50;0.50;;;;;;;27.38;30.14;99968.94;6275131;22;20030;-84
2023/09/05 09:49:54;;;;;;;0.50;0.50;;;;;;;26.71;30.81;99967.66;6248327;22;20031;-85
2023/09/05 09:52:21;;;;;;;0.40;0.40;;;;;;;26.47;31.70;99968.16;6222875;22;20462;-84
2023/09/05 09:54:53;;;;;;;0.28;0.28;;;;;;;24.91;33.56;99976.88;6248387;22;20104;-85
2023/09/05 09:57:46;;;;;;;0.60;0.60;;;;;;;25.12;34.01;99971.63;6172971;22;20030;-85
2023/09/05 10:00:17;;;;;;;0.30;0.30;;;;;;;24.38;34.84;99964.66;6247747;22;20019;-84
2023/09/05 10:02:46;;;;;;;0.20;0.20;;;;;;;23.20;36.59;99966.41;6261655;22;20354;-85
2023/09/05 10:05:16;;;;;;;0.60;0.60;;;;;;;22.84;37.81;99972.53;6217533;23;20447;-85
2023/09/05 10:07:44;;;;;;;0.70;0.70;;;;;;;23.91;36.16;99958.63;6217082;22;20020;-83
2023/09/05 10:10:15;;;;;;;0.60;0.60;;;;;;;25.76;33.94;99958.19;6244032;23;20020;-83
2023/09/05 10:12:46;;;;;;;0.60;0.60;;;;;;;27.48;31.75;99956.66;6217431;23;20427;-84
2023/09/05 10:15:15;;;;;;;0.20;0.20;;;;;;;26.54;32.19;99952.72;6244066;23;20031;-85
2023/09/05 10:17:43;;;;;;;0.20;0.20;;;;;;;24.59;34.59;99942.94;6217586;23;20046;-84
2023/09/05 10:20:14;;;;;;;0.20;0.20;;;;;;;23.31;36.44;99941.09;6244662;23;20030;-84
2023/09/05 10:22:43;;;;;;;0.20;0.20;;;;;;;22.69;36.80;99957.13;6193879;23;20074;-84
2023/09/05 10:25:13;;;;;;;0.30;0.30;;;;;;;23.52;36.01;99951.69;6244804;23;20561;-85
2023/09/05 10:27:42;;;;;;;0.30;0.30;;;;;;;23.17;36.30;99950.47;6218131;23;20027;-84
2023/09/05 10:30:13;;;;;;;0.30;0.30;;;;;;;23.14;35.95;99943.66;6214128;23;20023;-85
2023/09/05 10:32:42;;;;;;;0.70;0.70;;;;;;;25.25;32.71;99934.84;6217971;23;20028;-84
2023/09/05 10:35:10;;;;;;;0.50;0.50;;;;;;;27.10;31.59;99941.63;6243997;23;20383;-85
2023/09/05 10:38:03;;;;;;;0.50;0.50;;;;;;;28.60;29.23;99929.19;6244297;23;20581;-84
2023/09/05 10:40:33;;;;;;;0.50;0.50;;;;;;;29.70;27.56;99937.63;6218245;23;20032;-84
2023/09/05 10:43:05;;;;;;;0.45;0.45;;;;;;;30.17;27.47;99928.66;6244116;23;20024;-85
2023/09/05 10:45:34;;;;;;;0.40;0.40;;;;;;;30.29;25.85;99936.19;6244456;23;20098;-85
2023/09/05 10:48:07;;;;;;;0.47;0.47;;;;;;;30.34;25.58;99927.59;6244502;23;20519;-85
2023/09/05 10:54:29;;;;;;;0.43;0.43;;;;;;;29.68;25.90;99917.69;6198237;23;20107;-86
2023/09/05 10:56:56;;;;;;;0.40;0.40;;;;;;;30.06;25.08;99910.06;6217184;23;20198;-84
2023/09/05 11:00:18;;;;;;;0.50;0.50;;;;;;;30.42;25.10;99923.03;6216031;23;20024;-84
2023/09/05 11:03:12;;;;;;;0.50;0.50;;;;;;;30.54;24.73;99922.16;6197278;23;20028;-85
2023/09/05 11:05:42;;;;;;;0.40;0.40;;;;;;;30.23;25.58;99916.13;6217620;23;20028;-84
2023/09/05 11:08:22;;;;;;;0.40;0.40;;;;;;;30.38;25.07;99905.41;6219240;23;20267;-86
2023/09/05 11:10:56;;;;;;;0.40;0.40;;;;;;;31.30;24.28;99928.50;6244481;23;20110;-87
2023/09/05 11:13:23;;;;;;;0.40;0.40;;;;;;;31.36;24.09;99920.66;6217028;23;20467;-85
2023/09/05 11:15:58;;;;;;;0.40;0.40;;;;;;;31.56;24.04;99910.41;6244087;23;20482;-85
2023/09/05 11:18:25;;;;;;;0.20;0.20;;;;;;;29.14;26.28;99915.16;6243963;23;20107;-84
2023/09/05 11:20:55;;;;;;;0.20;0.20;;;;;;;27.01;28.80;99910.38;6244164;23;20085;-85
2023/09/05 11:23:27;;;;;;;0.20;0.20;;;;;;;26.70;29.34;99900.41;6167864;23;20051;-85
2023/09/05 11:25:56;;;;;;;0.50;0.50;;;;;;;26.65;29.00;99892.28;6243626;23;20020;-85
2023/09/05 11:28:24;;;;;;;0.47;0.47;;;;;;;27.94;27.32;99905.78;6217860;23;20047;-84
2023/09/05 11:30:56;;;;;;;0.20;0.20;;;;;;;26.30;29.44;99897.06;6243770;23;20024;-84
2023/09/05 11:33:25;;;;;;;0.47;0.47;;;;;;;25.96;30.35;99889.63;6243180;23;20523;-85
2023/09/05 11:35:54;;;;;;;0.20;0.20;;;;;;;27.18;28.52;99902.03;6216675;23;20090;-86
2023/09/05 11:38:23;;;;;;;0.20;0.20;;;;;;;25.58;29.96;99891.03;6243397;23;20052;-85
2023/09/05 11:40:54;;;;;;;0.20;0.20;;;;;;;24.70;31.04;99891.06;6168933;23;20533;-85
2023/09/05 11:43:23;;;;;;;0.60;0.60;;;;;;;27.52;28.57;99886.31;6167986;23;20107;-86
2023/09/05 11:45:53;;;;;;;0.50;0.50;;;;;;;29.73;25.09;99872.94;6191950;23;20114;-86
2023/09/05 11:48:23;;;;;;;0.40;0.40;;;;;;;31.11;23.61;99876.25;6192048;23;20051;-86